createdAt,value
2022-12-05T00:00:14.687Z,98526.00
2022-12-05T00:02:45.559Z,98525.00
2022-12-05T00:05:16.559Z,98525.00
2022-12-05T00:07:48.007Z,98525.00
2022-12-05T00:10:19.052Z,98529.00
2022-12-05T00:12:49.963Z,98536.00
2022-12-05T00:15:20.868Z,98541.00
2022-12-05T00:17:51.750Z,98535.00
2022-12-05T00:20:22.643Z,98524.00
2022-12-05T00:22:53.542Z,98538.00
2022-12-05T00:25:24.464Z,98536.00
2022-12-05T00:27:55.411Z,98531.00
2022-12-05T00:30:26.281Z,98536.00
2022-12-05T00:32:58.162Z,98528.00
2022-12-05T00:35:33.474Z,98522.00
2022-12-05T00:38:04.465Z,98528.00
2022-12-05T00:40:36.955Z,98521.00
2022-12-05T00:43:07.832Z,98518.00
2022-12-05T00:45:38.928Z,98523.00
2022-12-05T00:48:09.801Z,98522.00
2022-12-05T00:50:40.676Z,98539.00
2022-12-05T00:53:11.576Z,98531.00
2022-12-05T00:55:42.444Z,98535.00
2022-12-05T00:58:13.310Z,98537.00
2022-12-05T01:00:44.294Z,98542.00
2022-12-05T01:03:15.228Z,98541.00
2022-12-05T01:05:46.295Z,98551.00
2022-12-05T01:08:17.211Z,98554.00
2022-12-05T01:10:56.075Z,98560.00
2022-12-05T01:13:28.276Z,98567.00
2022-12-05T01:15:59.257Z,98569.00
2022-12-05T01:18:33.133Z,98581.00
2022-12-05T01:21:06.183Z,98595.00
2022-12-05T01:23:38.192Z,98596.00
2022-12-05T01:26:13.477Z,98595.00
2022-12-05T01:28:45.023Z,98590.00
2022-12-05T01:31:25.666Z,98597.00
2022-12-05T01:33:59.143Z,98588.00
2022-12-05T01:36:30.535Z,98617.00
2022-12-05T01:39:01.616Z,98601.00
2022-12-05T01:41:36.143Z,98594.00
2022-12-05T01:44:12.989Z,98590.00
2022-12-05T01:46:50.321Z,98585.00
2022-12-05T01:49:23.078Z,98586.00
2022-12-05T01:51:58.462Z,98601.00
2022-12-05T01:54:30.060Z,98603.00
2022-12-05T01:57:04.788Z,98590.00
2022-12-05T01:59:41.525Z,98584.00
2022-12-05T02:02:13.466Z,98595.00
2022-12-05T02:05:06.062Z,98594.00
2022-12-05T02:07:40.047Z,98596.00
2022-12-05T02:10:11.753Z,98594.00
2022-12-05T02:12:44.360Z,98601.00
2022-12-05T02:15:51.082Z,98600.00
2022-12-05T02:19:10.252Z,98603.00
2022-12-05T02:22:13.052Z,98605.00
2022-12-05T02:25:11.497Z,98613.00
2022-12-05T02:27:50.965Z,98618.00
2022-12-05T02:30:27.072Z,98619.00
2022-12-05T02:33:07.555Z,98631.00
2022-12-05T02:35:50.584Z,98636.00
2022-12-05T02:38:40.275Z,98646.00
2022-12-05T02:41:35.741Z,98657.00
2022-12-05T02:44:16.945Z,98653.00
2022-12-05T02:46:52.273Z,98646.00
2022-12-05T02:49:30.699Z,98645.00
2022-12-05T02:52:07.710Z,98656.00
2022-12-05T02:54:42.549Z,98648.00
2022-12-05T02:57:15.244Z,98657.00
2022-12-05T02:59:46.123Z,98672.00
2022-12-05T03:02:33.837Z,98686.00
2022-12-05T03:05:40.118Z,98656.00
2022-12-05T03:08:19.066Z,98654.00
2022-12-05T03:10:53.211Z,98644.00
2022-12-05T03:13:56.183Z,98643.00
2022-12-05T03:16:47.710Z,98637.00
2022-12-05T03:19:32.943Z,98638.00
2022-12-05T03:22:35.473Z,98634.00
2022-12-05T03:25:07.568Z,98635.00
2022-12-05T03:27:53.952Z,98634.00
2022-12-05T03:30:25.039Z,98637.00
2022-12-05T03:33:18.609Z,98639.00
2022-12-05T03:35:58.749Z,98641.00
2022-12-05T03:38:46.152Z,98641.00
2022-12-05T03:41:49.140Z,98643.00
2022-12-05T03:44:29.748Z,98637.00
2022-12-05T03:47:41.517Z,98641.00
2022-12-05T03:50:35.234Z,98642.00
2022-12-05T03:53:21.558Z,98656.00
2022-12-05T03:56:07.802Z,98643.00
2022-12-05T03:58:51.606Z,98662.00
2022-12-05T04:01:27.085Z,98646.00
2022-12-05T04:04:21.459Z,98628.00
2022-12-05T04:06:56.331Z,98634.00
2022-12-05T04:09:48.382Z,98633.00
2022-12-05T04:12:27.621Z,98637.00
2022-12-05T04:15:05.676Z,98653.00
2022-12-05T04:17:59.714Z,98640.00
2022-12-05T04:21:00.689Z,98629.00
2022-12-05T04:23:33.255Z,98632.00
2022-12-05T04:26:34.826Z,98635.00
2022-12-05T04:29:19.105Z,98646.00
2022-12-05T04:31:57.916Z,98656.00
2022-12-05T04:34:30.389Z,98652.00
2022-12-05T04:37:09.828Z,98656.00
2022-12-05T04:39:50.518Z,98664.00
2022-12-05T04:42:26.619Z,98662.00
2022-12-05T04:45:06.663Z,98670.00
2022-12-05T04:47:46.904Z,98665.00
2022-12-05T04:50:18.952Z,98666.00
2022-12-05T04:52:53.859Z,98665.00
2022-12-05T04:55:28.114Z,98672.00
2022-12-05T04:58:23.253Z,98673.00
2022-12-05T05:01:25.739Z,98674.00
2022-12-05T05:04:41.443Z,98672.00
2022-12-05T05:07:14.183Z,98670.00
2022-12-05T05:09:48.446Z,98676.00
2022-12-05T05:12:19.527Z,98682.00
2022-12-05T05:14:50.476Z,98676.00
2022-12-05T05:17:22.470Z,98679.00
2022-12-05T05:20:16.894Z,98680.00
2022-12-05T05:22:52.110Z,98683.00
2022-12-05T05:25:24.991Z,98694.00
2022-12-05T05:27:56.893Z,98693.00
2022-12-05T05:30:29.085Z,98703.00
2022-12-05T05:33:00.824Z,98700.00
2022-12-05T05:35:31.817Z,98698.00
2022-12-05T05:38:02.925Z,98701.00
2022-12-05T05:40:37.263Z,98705.00
2022-12-05T05:43:08.149Z,98713.00
2022-12-05T05:45:39.055Z,98725.00
2022-12-05T05:48:09.941Z,98715.00
2022-12-05T05:50:40.819Z,98729.00
2022-12-05T05:53:11.752Z,98734.00
2022-12-05T05:55:43.824Z,98722.00
2022-12-05T05:58:14.751Z,98717.00
2022-12-05T06:00:46.779Z,98720.00
2022-12-05T06:03:17.787Z,98718.00
2022-12-05T06:06:01.317Z,98711.00
2022-12-05T06:08:34.622Z,98716.00
2022-12-05T06:11:11.658Z,98702.00
2022-12-05T06:13:42.561Z,98714.00
2022-12-05T06:16:16.574Z,98718.00
2022-12-05T06:18:48.667Z,98726.00
2022-12-05T06:21:21.104Z,98725.00
2022-12-05T06:23:52.914Z,98716.00
2022-12-05T06:26:42.425Z,98718.00
2022-12-05T06:29:13.322Z,98724.00
2022-12-05T06:31:44.235Z,98712.00
2022-12-05T06:34:15.342Z,98731.00
2022-12-05T06:36:46.219Z,98746.00
2022-12-05T06:39:17.181Z,98747.00
2022-12-05T06:41:48.092Z,98758.00
2022-12-05T06:44:19.145Z,98768.00
2022-12-05T06:46:54.478Z,98764.00
2022-12-05T06:49:31.707Z,98760.00
2022-12-05T06:52:04.695Z,98766.00
2022-12-05T06:54:35.841Z,98762.00
2022-12-05T06:57:06.696Z,98759.00
2022-12-05T06:59:37.573Z,98764.00
2022-12-05T07:02:11.286Z,98772.00
2022-12-05T07:04:42.252Z,98779.00
2022-12-05T07:07:13.601Z,98770.00
2022-12-05T07:09:51.353Z,98769.00
2022-12-05T07:12:22.293Z,98770.00
2022-12-05T07:14:53.223Z,98763.00
2022-12-05T07:17:24.201Z,98772.00
2022-12-05T07:19:55.323Z,98780.00
2022-12-05T07:22:26.701Z,98793.00
2022-12-05T07:24:57.690Z,98803.00
2022-12-05T07:27:28.732Z,98792.00
2022-12-05T07:29:59.885Z,98794.00
2022-12-05T07:32:34.654Z,98803.00
2022-12-05T07:35:05.969Z,98803.00
2022-12-05T07:37:37.249Z,98807.00
2022-12-05T07:40:09.086Z,98802.00
2022-12-05T07:42:39.944Z,98796.00
2022-12-05T07:45:11.139Z,98808.00
2022-12-05T07:47:42.138Z,98831.00
2022-12-05T07:50:13.981Z,98806.00
2022-12-05T07:52:44.831Z,98792.00
2022-12-05T07:55:15.760Z,98798.00
2022-12-05T07:57:46.633Z,98800.00
2022-12-05T08:00:18.554Z,98804.00
2022-12-05T08:02:49.457Z,98798.00
2022-12-05T08:05:20.383Z,98803.00
2022-12-05T08:07:51.294Z,98808.00
2022-12-05T08:10:22.203Z,98813.00
2022-12-05T08:12:55.765Z,98807.00
2022-12-05T08:15:26.679Z,98821.00
2022-12-05T08:17:57.631Z,98812.00
2022-12-05T08:20:28.579Z,98823.00
2022-12-05T08:22:59.528Z,98816.00
2022-12-05T08:25:30.672Z,98823.00
2022-12-05T08:28:01.609Z,98828.00
2022-12-05T08:30:34.151Z,98833.00
2022-12-05T08:33:05.117Z,98824.00
2022-12-05T08:35:37.796Z,98836.00
2022-12-05T08:38:08.673Z,98833.00
2022-12-05T08:40:39.581Z,98842.00
2022-12-05T08:43:10.453Z,98845.00
2022-12-05T08:45:41.359Z,98839.00
2022-12-05T08:48:12.324Z,98854.00
2022-12-05T08:50:43.200Z,98853.00
2022-12-05T08:53:14.092Z,98847.00
2022-12-05T08:55:48.135Z,98843.00
2022-12-05T08:58:19.045Z,98854.00
2022-12-05T09:00:49.931Z,98851.00
2022-12-05T09:03:20.826Z,98850.00
2022-12-05T09:05:54.804Z,98851.00
2022-12-05T09:08:25.938Z,98846.00
2022-12-05T09:10:56.838Z,98857.00
2022-12-05T09:13:27.709Z,98854.00
2022-12-05T09:15:58.701Z,98863.00
2022-12-05T09:18:29.616Z,98873.00
2022-12-05T09:21:13.803Z,98860.00
2022-12-05T09:23:45.638Z,98870.00
2022-12-05T09:26:20.662Z,98873.00
2022-12-05T09:28:53.109Z,98878.00
2022-12-05T09:31:27.258Z,98874.00
2022-12-05T09:33:58.675Z,98881.00
2022-12-05T09:36:32.072Z,98886.00
2022-12-05T09:39:06.430Z,98880.00
2022-12-05T09:42:21.049Z,98883.00
2022-12-05T09:45:29.364Z,98884.00
2022-12-05T09:48:24.483Z,98883.00
2022-12-05T09:51:02.693Z,98891.00
2022-12-05T09:53:38.125Z,98898.00
2022-12-05T09:56:27.849Z,98886.00
2022-12-05T09:59:02.540Z,98885.00
2022-12-05T10:01:59.004Z,98876.00
2022-12-05T10:04:51.662Z,98888.00
2022-12-05T10:07:44.204Z,98894.00
2022-12-05T10:10:44.433Z,98885.00
2022-12-05T10:13:45.280Z,98881.00
2022-12-05T10:16:46.098Z,98881.00
2022-12-05T10:19:26.009Z,98885.00
2022-12-05T10:22:18.899Z,98890.00
2022-12-05T10:25:04.078Z,98892.00
2022-12-05T10:27:41.100Z,98888.00
2022-12-05T10:30:24.765Z,98887.00
2022-12-05T10:33:09.727Z,98883.00
2022-12-05T10:35:45.003Z,98877.00
2022-12-05T10:38:43.689Z,98873.00
2022-12-05T10:41:15.470Z,98871.00
2022-12-05T10:43:46.781Z,98876.00
2022-12-05T10:46:18.429Z,98871.00
2022-12-05T10:48:49.363Z,98869.00
2022-12-05T10:51:30.089Z,98892.00
2022-12-05T10:54:13.919Z,98877.00
2022-12-05T10:56:49.565Z,98874.00
2022-12-05T10:59:26.784Z,98873.00
2022-12-05T11:01:59.761Z,98875.00
2022-12-05T11:04:43.491Z,98873.00
2022-12-05T11:07:48.480Z,98870.00
2022-12-05T11:10:35.203Z,98868.00
2022-12-05T11:13:25.125Z,98875.00
2022-12-05T11:15:56.092Z,98865.00
2022-12-05T11:18:31.798Z,98861.00
2022-12-05T11:21:14.648Z,98868.00
2022-12-05T11:23:46.414Z,98867.00
2022-12-05T11:26:36.960Z,98861.00
2022-12-05T11:29:32.573Z,98864.00
2022-12-05T11:32:08.764Z,98859.00
2022-12-05T11:34:54.407Z,98854.00
2022-12-05T11:37:32.527Z,98875.00
2022-12-05T11:40:18.112Z,98853.00
2022-12-05T11:43:18.225Z,98858.00
2022-12-05T11:46:14.331Z,98857.00
2022-12-05T11:49:09.437Z,98843.00
2022-12-05T11:51:56.005Z,98850.00
2022-12-05T11:55:07.432Z,98849.00
2022-12-05T11:58:00.779Z,98846.00
2022-12-05T12:01:00.445Z,98839.00
2022-12-05T12:03:55.534Z,98845.00
2022-12-05T12:06:34.057Z,98844.00
2022-12-05T12:09:29.895Z,98851.00
2022-12-05T12:12:36.779Z,98849.00
2022-12-05T12:15:44.805Z,98844.00
2022-12-05T12:18:53.063Z,98849.00
2022-12-05T12:21:41.814Z,98863.00
2022-12-05T12:24:52.495Z,98852.00
2022-12-05T12:28:02.946Z,98854.00
2022-12-05T12:31:08.932Z,98856.00
2022-12-05T12:33:54.801Z,98849.00
2022-12-05T12:36:49.522Z,98847.00
2022-12-05T12:39:50.771Z,98848.00
2022-12-05T12:42:39.262Z,98854.00
2022-12-05T12:46:11.192Z,98848.00
2022-12-05T12:49:10.318Z,98859.00
2022-12-05T12:51:52.975Z,98846.00
2022-12-05T12:55:03.443Z,98838.00
2022-12-05T12:58:11.515Z,98844.00
2022-12-05T13:01:05.297Z,98846.00
2022-12-05T13:03:51.594Z,98847.00
2022-12-05T13:06:39.225Z,98835.00
2022-12-05T13:09:20.884Z,98834.00
2022-12-05T13:11:54.314Z,98841.00
2022-12-05T13:14:27.629Z,98838.00
2022-12-05T13:17:00.942Z,98836.00
2022-12-05T13:19:46.835Z,98832.00
2022-12-05T13:22:21.272Z,98838.00
2022-12-05T13:24:53.686Z,98836.00
2022-12-05T13:27:28.098Z,98834.00
2022-12-05T13:30:10.820Z,98842.00
2022-12-05T13:32:44.556Z,98844.00
2022-12-05T13:35:52.141Z,98832.00
2022-12-05T13:38:59.518Z,98830.00
2022-12-05T13:42:04.908Z,98826.00
2022-12-05T13:44:44.856Z,98835.00
2022-12-05T13:47:46.255Z,98837.00
2022-12-05T13:50:31.614Z,98832.00
2022-12-05T13:53:19.756Z,98838.00
2022-12-05T13:56:14.882Z,98852.00
2022-12-05T13:58:50.096Z,98841.00
2022-12-05T14:01:27.408Z,98857.00
2022-12-05T14:04:02.272Z,98860.00
2022-12-05T14:06:38.160Z,98860.00
2022-12-05T14:09:18.065Z,98863.00
2022-12-05T14:12:10.716Z,98871.00
2022-12-05T14:15:00.740Z,98874.00
2022-12-05T14:17:42.668Z,98876.00
2022-12-05T14:20:26.215Z,98877.00
2022-12-05T14:23:21.489Z,98873.00
2022-12-05T14:26:32.159Z,98873.00
2022-12-05T14:29:37.836Z,98876.00
2022-12-05T14:32:36.017Z,98883.00
2022-12-05T14:35:51.875Z,98878.00
2022-12-05T14:38:32.615Z,98879.00
2022-12-05T14:41:44.759Z,98892.00
2022-12-05T14:44:19.394Z,98909.00
2022-12-05T14:46:50.610Z,98893.00
2022-12-05T14:50:01.907Z,98886.00
2022-12-05T14:52:34.788Z,98908.00
2022-12-05T14:55:16.300Z,98891.00
2022-12-05T14:57:49.694Z,98886.00
2022-12-05T15:00:23.252Z,98885.00
2022-12-05T15:02:55.764Z,98889.00
2022-12-05T15:05:32.153Z,98887.00
2022-12-05T15:08:04.892Z,98890.00
2022-12-05T15:10:38.891Z,98894.00
2022-12-05T15:13:20.557Z,98886.00
2022-12-05T15:16:14.852Z,98886.00
2022-12-05T15:18:54.930Z,98899.00
2022-12-05T15:21:33.205Z,98893.00
2022-12-05T15:24:13.517Z,98886.00
2022-12-05T15:26:57.443Z,98915.00
2022-12-05T15:29:32.814Z,98884.00
2022-12-05T15:32:18.499Z,98892.00
2022-12-05T15:35:08.973Z,98897.00
2022-12-05T15:37:55.533Z,98901.00
2022-12-05T15:40:27.923Z,98898.00
2022-12-05T15:42:59.144Z,98909.00
2022-12-05T15:45:31.933Z,98914.00
2022-12-05T15:48:05.498Z,98904.00
2022-12-05T15:50:49.983Z,98912.00
2022-12-05T15:53:44.601Z,98918.00
2022-12-05T15:56:30.175Z,98917.00
2022-12-05T15:59:05.825Z,98922.00
2022-12-05T16:01:57.341Z,98929.00
2022-12-05T16:04:48.554Z,98929.00
2022-12-05T16:07:21.483Z,98939.00
2022-12-05T16:09:58.247Z,98934.00
2022-12-05T16:12:40.829Z,98922.00
2022-12-05T16:15:26.865Z,98952.00
2022-12-05T16:18:01.531Z,98931.00
2022-12-05T16:20:35.915Z,98933.00
2022-12-05T16:23:30.011Z,98943.00
2022-12-05T16:26:13.577Z,98952.00
2022-12-05T16:29:01.318Z,98945.00
2022-12-05T16:31:34.195Z,98948.00
2022-12-05T16:34:07.550Z,98950.00
2022-12-05T16:36:50.316Z,98951.00
2022-12-05T16:39:22.686Z,98961.00
2022-12-05T16:41:54.613Z,98956.00
2022-12-05T16:44:28.621Z,98959.00
2022-12-05T16:47:02.535Z,98959.00
2022-12-05T16:49:36.408Z,98954.00
2022-12-05T16:52:12.742Z,98948.00
2022-12-05T16:54:48.789Z,98948.00
2022-12-05T16:57:19.911Z,98942.00
2022-12-05T16:59:50.897Z,98949.00
2022-12-05T17:02:21.931Z,98968.00
2022-12-05T17:05:03.213Z,98951.00
2022-12-05T17:07:34.567Z,98959.00
2022-12-05T17:10:06.917Z,98957.00
2022-12-05T17:12:37.846Z,98957.00
2022-12-05T17:15:18.246Z,98959.00
2022-12-05T17:17:51.797Z,98950.00
2022-12-05T17:20:22.786Z,98958.00
2022-12-05T17:22:53.850Z,98949.00
2022-12-05T17:25:36.385Z,98952.00
2022-12-05T17:28:10.280Z,98953.00
2022-12-05T17:30:41.340Z,98948.00
2022-12-05T17:33:19.804Z,98949.00
2022-12-05T17:35:52.062Z,98953.00
2022-12-05T17:38:23.282Z,98949.00
2022-12-05T17:40:57.100Z,98951.00
2022-12-05T17:43:27.971Z,98958.00
2022-12-05T17:46:03.945Z,98954.00
2022-12-05T17:48:34.994Z,98950.00
2022-12-05T17:51:11.335Z,98954.00
2022-12-05T17:53:44.551Z,98953.00
2022-12-05T17:56:16.358Z,98949.00
2022-12-05T17:58:47.396Z,98949.00
2022-12-05T18:01:21.225Z,98955.00
2022-12-05T18:03:52.214Z,98944.00
2022-12-05T18:06:23.747Z,98978.00
2022-12-05T18:08:54.684Z,98954.00
2022-12-05T18:11:28.261Z,98952.00
2022-12-05T18:14:00.034Z,98953.00
2022-12-05T18:16:31.038Z,98956.00
2022-12-05T18:19:02.017Z,98964.00
2022-12-05T18:21:32.932Z,98958.00
2022-12-05T18:24:04.145Z,98954.00
2022-12-05T18:26:35.080Z,98953.00
2022-12-05T18:29:06.028Z,98951.00
2022-12-05T18:31:38.475Z,98957.00
2022-12-05T18:34:09.612Z,98959.00
2022-12-05T18:36:41.122Z,98958.00
2022-12-05T18:39:14.664Z,98960.00
2022-12-05T18:41:45.621Z,98964.00
2022-12-05T18:44:16.628Z,98959.00
2022-12-05T18:46:47.595Z,98967.00
2022-12-05T18:49:18.581Z,98972.00
2022-12-05T18:51:50.093Z,98976.00
2022-12-05T18:54:21.385Z,98974.00
2022-12-05T18:56:52.909Z,98979.00
2022-12-05T18:59:23.940Z,98969.00
2022-12-05T19:01:55.654Z,98975.00
2022-12-05T19:04:29.980Z,98983.00
2022-12-05T19:07:02.033Z,98978.00
2022-12-05T19:09:33.390Z,98978.00
2022-12-05T19:12:04.442Z,98987.00
2022-12-05T19:14:35.375Z,98984.00
2022-12-05T19:17:06.327Z,98988.00
2022-12-05T19:19:37.318Z,98987.00
2022-12-05T19:22:08.347Z,98991.00
2022-12-05T19:24:39.288Z,98983.00
2022-12-05T19:27:13.327Z,98980.00
2022-12-05T19:29:44.318Z,98981.00
2022-12-05T19:32:15.353Z,98978.00
2022-12-05T19:34:48.397Z,98978.00
2022-12-05T19:37:21.648Z,98989.00
2022-12-05T19:39:52.623Z,98994.00
2022-12-05T19:42:26.481Z,98991.00
2022-12-05T19:44:57.393Z,98996.00
2022-12-05T19:47:28.276Z,98992.00
2022-12-05T19:49:59.503Z,98997.00
2022-12-05T19:52:30.655Z,98990.00
2022-12-05T19:55:01.672Z,98991.00
2022-12-05T19:57:32.638Z,98981.00
2022-12-05T20:00:04.811Z,99004.00
2022-12-05T20:02:40.017Z,98986.00
2022-12-05T20:05:13.368Z,98990.00
2022-12-05T20:07:44.329Z,98995.00
2022-12-05T20:10:15.502Z,98997.00
2022-12-05T20:13:24.244Z,98997.00
2022-12-05T20:16:07.562Z,98994.00
2022-12-05T20:18:40.655Z,98999.00
2022-12-05T20:21:18.563Z,99001.00
2022-12-05T20:23:51.706Z,98997.00
2022-12-05T20:26:27.276Z,98996.00
2022-12-05T20:29:00.484Z,98991.00
2022-12-05T20:31:42.631Z,98992.00
2022-12-05T20:34:15.528Z,98989.00
2022-12-05T20:36:46.533Z,99000.00
2022-12-05T20:39:17.952Z,98992.00
2022-12-05T20:41:52.258Z,98993.00
2022-12-05T20:44:23.194Z,98991.00
2022-12-05T20:46:54.487Z,99005.00
2022-12-05T20:49:25.366Z,98987.00
2022-12-05T20:51:56.788Z,98997.00
2022-12-05T20:54:27.862Z,98992.00
2022-12-05T20:56:58.895Z,98987.00
2022-12-05T20:59:30.083Z,98987.00
2022-12-05T21:02:01.195Z,98983.00
2022-12-05T21:04:32.630Z,98996.00
2022-12-05T21:07:03.559Z,98997.00
2022-12-05T21:09:35.910Z,99000.00
2022-12-05T21:12:06.861Z,98999.00
2022-12-05T21:14:37.733Z,98988.00
2022-12-05T21:17:08.694Z,98997.00
2022-12-05T21:19:39.614Z,98998.00
2022-12-05T21:22:10.500Z,98986.00
2022-12-05T21:24:41.805Z,98992.00
2022-12-05T21:27:14.896Z,98990.00
2022-12-05T21:29:45.819Z,98992.00
2022-12-05T21:32:16.755Z,98991.00
2022-12-05T21:34:47.646Z,98992.00
2022-12-05T21:37:18.532Z,98987.00
2022-12-05T21:39:49.400Z,98986.00
2022-12-05T21:42:20.323Z,98979.00
2022-12-05T21:44:51.198Z,98977.00
2022-12-05T21:47:22.246Z,99011.00
2022-12-05T21:49:54.588Z,98986.00
2022-12-05T21:52:25.457Z,98984.00
2022-12-05T21:54:56.387Z,98987.00
2022-12-05T21:57:32.565Z,98984.00
2022-12-05T22:00:04.032Z,98981.00
2022-12-05T22:02:35.410Z,98975.00
2022-12-05T22:05:06.928Z,98979.00
2022-12-05T22:07:37.827Z,98982.00
2022-12-05T22:10:09.220Z,98987.00
2022-12-05T22:12:40.202Z,98984.00
2022-12-05T22:15:11.865Z,98981.00
2022-12-05T22:17:42.903Z,98986.00
2022-12-05T22:20:13.808Z,98989.00
2022-12-05T22:22:44.696Z,98990.00
2022-12-05T22:25:15.665Z,98974.00
2022-12-05T22:27:46.520Z,98984.00
2022-12-05T22:30:20.318Z,98976.00
2022-12-05T22:32:53.808Z,98967.00
2022-12-05T22:35:24.717Z,98971.00
2022-12-05T22:37:55.588Z,98980.00
2022-12-05T22:40:26.482Z,98973.00
2022-12-05T22:42:57.348Z,98978.00
2022-12-05T22:45:28.235Z,98977.00
2022-12-05T22:47:59.162Z,98969.00
2022-12-05T22:50:30.106Z,98972.00
2022-12-05T22:53:03.529Z,98961.00
2022-12-05T22:55:34.498Z,98964.00
2022-12-05T22:58:05.365Z,98959.00
2022-12-05T23:00:37.152Z,98957.00
2022-12-05T23:03:08.522Z,98956.00
2022-12-05T23:05:41.512Z,98954.00
2022-12-05T23:08:12.811Z,98957.00
2022-12-05T23:10:43.769Z,98959.00
2022-12-05T23:13:14.810Z,98963.00
2022-12-05T23:15:46.002Z,98956.00
2022-12-05T23:18:16.956Z,98960.00
2022-12-05T23:20:47.894Z,98976.00
2022-12-05T23:23:18.821Z,98976.00
2022-12-05T23:25:49.837Z,98957.00
2022-12-05T23:28:23.745Z,98944.00
2022-12-05T23:30:54.746Z,98957.00
2022-12-05T23:33:26.564Z,98951.00
2022-12-05T23:36:00.759Z,98950.00
2022-12-05T23:38:31.707Z,98950.00
2022-12-05T23:41:05.872Z,98945.00
2022-12-05T23:43:37.417Z,98947.00
2022-12-05T23:46:09.352Z,98953.00
2022-12-05T23:48:40.858Z,98949.00
2022-12-05T23:51:24.550Z,98952.00
2022-12-05T23:53:58.874Z,98950.00
2022-12-05T23:56:32.634Z,98951.00
2022-12-05T23:59:06.120Z,98948.00
